createdAt,value
2019-04-05T00:01:55.034Z,12.47
2019-04-05T00:04:23.226Z,13.97
2019-04-05T00:06:51.352Z,11.63
2019-04-05T00:09:19.574Z,12.97
2019-04-05T00:11:47.679Z,13.03
2019-04-05T00:14:15.787Z,12.97
2019-04-05T00:16:43.965Z,13.97
2019-04-05T00:19:12.032Z,14.13
2019-04-05T00:21:40.109Z,12.87
2019-04-05T00:24:08.201Z,12.83
2019-04-05T00:26:36.207Z,13.53
2019-04-05T00:29:04.553Z,13.00
2019-04-05T00:31:34.079Z,12.87
2019-04-05T00:34:04.299Z,12.93
2019-04-05T00:36:32.393Z,13.93
2019-04-05T00:39:00.847Z,14.07
2019-04-05T00:41:28.897Z,14.00
2019-04-05T00:43:56.999Z,13.43
2019-04-05T00:46:25.061Z,13.73
2019-04-05T00:48:53.099Z,14.73
2019-04-05T00:51:21.157Z,13.93
2019-04-05T00:53:49.205Z,14.40
2019-04-05T00:56:17.319Z,16.03
2019-04-05T00:58:45.457Z,14.13
2019-04-05T01:01:13.483Z,14.07
2019-04-05T01:03:41.942Z,15.77
2019-04-05T01:06:09.972Z,14.33
2019-04-05T01:08:38.047Z,13.77
2019-04-05T01:11:06.061Z,14.77
2019-04-05T01:13:34.236Z,14.30
2019-04-05T01:16:02.378Z,14.13
2019-04-05T01:18:30.517Z,15.37
2019-04-05T01:20:58.591Z,14.20
2019-04-05T01:23:26.603Z,14.73
2019-04-05T01:25:54.658Z,13.87
2019-04-05T01:28:22.778Z,14.23
2019-04-05T01:30:50.879Z,15.77
2019-04-05T01:33:20.298Z,15.03
2019-04-05T01:35:48.388Z,16.00
2019-04-05T01:38:16.453Z,15.57
2019-04-05T01:40:44.499Z,16.83
2019-04-05T01:43:12.541Z,16.47
2019-04-05T01:45:52.670Z,16.23
2019-04-05T01:48:10.279Z,16.70
2019-04-05T01:50:38.352Z,16.13
2019-04-05T01:53:06.382Z,15.83
2019-04-05T01:55:34.408Z,16.23
2019-04-05T01:58:02.500Z,16.20
2019-04-05T02:00:30.523Z,16.20
2019-04-05T02:02:59.108Z,16.03
2019-04-05T02:05:27.306Z,16.43
2019-04-05T02:07:55.509Z,16.47
2019-04-05T02:10:23.529Z,16.23
2019-04-05T02:12:51.642Z,16.47
2019-04-05T02:15:23.801Z,16.93
2019-04-05T02:17:51.850Z,16.97
2019-04-05T02:20:19.905Z,16.40
2019-04-05T02:22:47.977Z,17.20
2019-04-05T02:25:16.031Z,17.70
2019-04-05T02:27:44.116Z,16.90
2019-04-05T02:30:12.399Z,18.43
2019-04-05T02:32:41.483Z,16.43
2019-04-05T02:35:09.539Z,17.80
2019-04-05T02:37:37.558Z,17.60
2019-04-05T02:40:05.870Z,17.17
2019-04-05T02:42:33.914Z,18.40
2019-04-05T02:45:02.055Z,17.40
2019-04-05T02:47:30.055Z,18.43
2019-04-05T02:49:58.152Z,17.70
2019-04-05T02:52:26.172Z,18.77
2019-04-05T02:54:54.205Z,17.87
2019-04-05T02:57:22.309Z,18.10
2019-04-05T02:59:50.301Z,18.27
2019-04-05T03:02:18.483Z,17.57
2019-04-05T03:04:47.303Z,17.50
2019-04-05T03:07:15.316Z,19.07
2019-04-05T03:09:44.340Z,17.17
2019-04-05T03:12:12.377Z,17.27
2019-04-05T03:14:40.450Z,18.70
2019-04-05T03:17:08.482Z,17.53
2019-04-05T03:19:36.466Z,17.77
2019-04-05T03:22:07.232Z,18.90
2019-04-05T03:24:35.226Z,18.37
2019-04-05T03:27:05.783Z,20.07
2019-04-05T03:29:33.753Z,19.37
2019-04-05T03:32:02.078Z,19.77
2019-04-05T03:34:30.097Z,20.37
2019-04-05T03:36:58.164Z,22.47
2019-04-05T03:39:26.161Z,21.40
2019-04-05T03:41:54.165Z,21.07
2019-04-05T03:44:23.163Z,23.80
2019-04-05T03:46:57.077Z,22.67
2019-04-05T03:49:21.383Z,23.93
2019-04-05T03:51:49.415Z,27.50
2019-04-05T03:54:17.441Z,28.63
2019-04-05T03:56:45.772Z,30.97
2019-04-05T03:59:13.843Z,34.83
2019-04-05T04:01:41.926Z,32.63
2019-04-05T04:04:09.991Z,35.93
2019-04-05T04:06:38.080Z,35.93
2019-04-05T04:09:06.633Z,37.10
2019-04-05T04:11:34.705Z,38.63
2019-04-05T04:14:02.702Z,43.07
2019-04-05T04:16:30.775Z,46.87
2019-04-05T04:18:58.787Z,51.23
2019-04-05T04:21:45.593Z,54.73
2019-04-05T04:24:13.616Z,59.57
2019-04-05T04:26:41.637Z,55.67
2019-04-05T04:29:09.667Z,61.80
2019-04-05T04:31:37.728Z,60.33
2019-04-05T04:34:06.094Z,58.87
2019-04-05T04:36:34.120Z,60.87
2019-04-05T04:39:02.142Z,64.30
2019-04-05T04:41:31.867Z,63.77
2019-04-05T04:43:59.876Z,62.10
2019-04-05T04:46:27.842Z,64.63
2019-04-05T04:48:55.869Z,63.87
2019-04-05T04:51:23.858Z,65.70
2019-04-05T04:53:51.911Z,62.97
2019-04-05T04:56:19.921Z,62.73
2019-04-05T04:58:48.024Z,62.83
2019-04-05T05:01:16.081Z,64.53
2019-04-05T05:03:44.105Z,62.93
2019-04-05T05:06:12.160Z,60.23
2019-04-05T05:08:40.169Z,63.13
2019-04-05T05:11:14.355Z,65.93
2019-04-05T05:13:37.876Z,61.90
2019-04-05T05:16:05.931Z,64.10
2019-04-05T05:18:33.911Z,66.50
2019-04-05T05:21:01.965Z,65.53
2019-04-05T05:23:29.997Z,62.07
2019-04-05T05:25:58.202Z,66.23
2019-04-05T05:28:26.199Z,65.20
2019-04-05T05:30:54.289Z,65.90
2019-04-05T05:33:22.304Z,64.97
2019-04-05T05:35:50.295Z,63.53
2019-04-05T05:38:18.316Z,65.17
2019-04-05T05:40:46.468Z,62.33
2019-04-05T05:43:14.547Z,61.50
2019-04-05T05:45:42.583Z,61.73
2019-04-05T05:48:10.622Z,59.07
2019-04-05T05:50:38.622Z,57.47
2019-04-05T05:53:06.658Z,57.33
2019-04-05T05:55:36.333Z,55.70
2019-04-05T05:58:05.664Z,57.10
2019-04-05T06:00:33.720Z,56.80
2019-04-05T06:03:01.783Z,54.23
2019-04-05T06:05:29.813Z,52.80
2019-04-05T06:07:58.772Z,57.57
2019-04-05T06:10:27.820Z,58.10
2019-04-05T06:12:58.650Z,56.20
2019-04-05T06:15:25.544Z,59.57
2019-04-05T06:18:04.074Z,57.60
2019-04-05T06:20:23.267Z,59.43
2019-04-05T06:22:51.279Z,58.23
2019-04-05T06:25:19.325Z,53.47
2019-04-05T06:27:47.298Z,55.43
2019-04-05T06:30:17.174Z,53.30
2019-04-05T06:32:45.131Z,51.60
2019-04-05T06:35:13.280Z,50.60
2019-04-05T06:37:41.453Z,53.83
2019-04-05T06:40:09.530Z,50.07
2019-04-05T06:42:37.524Z,51.60
2019-04-05T06:45:05.621Z,51.63
2019-04-05T06:47:33.709Z,49.07
2019-04-05T06:50:01.749Z,51.33
2019-04-05T06:52:29.759Z,50.57
2019-04-05T06:54:57.855Z,50.93
2019-04-05T06:57:25.849Z,50.03
2019-04-05T06:59:53.902Z,52.17
2019-04-05T07:02:21.959Z,49.17
2019-04-05T07:04:50.035Z,50.97
2019-04-05T07:07:18.179Z,51.97
2019-04-05T07:09:46.193Z,53.17
2019-04-05T07:12:14.254Z,52.70
2019-04-05T07:14:42.331Z,52.50
2019-04-05T07:17:10.566Z,53.00
2019-04-05T07:19:38.624Z,51.10
2019-04-05T07:22:06.914Z,51.17
2019-04-05T07:24:34.949Z,53.40
2019-04-05T07:27:02.975Z,53.70
2019-04-05T07:29:31.010Z,51.23
2019-04-05T07:31:59.059Z,53.70
2019-04-05T07:34:27.106Z,52.67
2019-04-05T07:36:55.127Z,53.10
2019-04-05T07:39:23.221Z,52.33
2019-04-05T07:41:51.233Z,52.00
2019-04-05T07:44:19.272Z,50.80
2019-04-05T07:46:47.278Z,49.57
2019-04-05T07:49:15.288Z,51.03
2019-04-05T07:51:43.353Z,46.17
2019-04-05T07:54:11.347Z,48.53
2019-04-05T07:56:39.295Z,49.67
2019-04-05T07:59:07.310Z,48.93
2019-04-05T08:01:35.348Z,51.27
2019-04-05T08:04:03.394Z,48.23
2019-04-05T08:06:31.423Z,48.60
2019-04-05T08:09:02.296Z,48.23
2019-04-05T08:11:29.798Z,50.80
2019-04-05T08:13:58.296Z,54.00
2019-04-05T08:16:26.358Z,52.27
2019-04-05T08:18:58.066Z,50.47
2019-04-05T08:21:24.238Z,52.27
2019-04-05T08:23:52.178Z,52.30
2019-04-05T08:26:20.260Z,52.13
2019-04-05T08:28:49.715Z,51.50
2019-04-05T08:31:21.661Z,51.17
2019-04-05T08:33:51.256Z,52.83
2019-04-05T08:36:21.745Z,51.20
2019-04-05T08:38:51.197Z,51.73
2019-04-05T08:41:20.648Z,53.67
2019-04-05T08:43:49.980Z,50.10
2019-04-05T08:46:19.423Z,46.67
2019-04-05T08:48:48.795Z,48.60
2019-04-05T08:51:18.213Z,48.77
2019-04-05T08:53:47.590Z,47.83
2019-04-05T08:56:17.914Z,48.20
2019-04-05T08:58:47.021Z,47.97
2019-04-05T09:01:16.302Z,46.43
2019-04-05T09:03:45.439Z,44.50
2019-04-05T09:06:16.883Z,47.13
2019-04-05T09:08:46.147Z,45.07
2019-04-05T09:11:15.505Z,48.50
2019-04-05T09:13:45.220Z,46.30
2019-04-05T09:16:14.352Z,45.97
2019-04-05T09:18:43.578Z,47.17
2019-04-05T09:21:12.779Z,47.07
2019-04-05T09:23:42.464Z,43.97
2019-04-05T09:26:11.327Z,45.93
2019-04-05T09:28:39.488Z,48.03
2019-04-05T09:31:08.810Z,49.47
2019-04-05T09:33:36.929Z,48.40
2019-04-05T09:36:05.008Z,48.77
2019-04-05T09:38:33.202Z,50.10
2019-04-05T09:41:01.302Z,49.83
2019-04-05T09:43:29.486Z,48.90
2019-04-05T09:45:57.514Z,50.83
2019-04-05T09:48:25.549Z,49.30
2019-04-05T09:50:53.587Z,47.47
2019-04-05T09:53:21.512Z,47.93
2019-04-05T09:55:49.565Z,49.23
2019-04-05T09:58:17.554Z,46.93
2019-04-05T10:00:45.673Z,46.77
2019-04-05T10:03:13.716Z,44.70
2019-04-05T10:05:41.747Z,47.03
2019-04-05T10:08:09.891Z,45.97
2019-04-05T10:10:37.942Z,46.97
2019-04-05T10:13:05.977Z,45.87
2019-04-05T10:15:34.018Z,46.20
2019-04-05T10:18:02.059Z,47.13
2019-04-05T10:20:30.079Z,48.70
2019-04-05T10:22:58.167Z,48.97
2019-04-05T10:25:26.135Z,48.03
2019-04-05T10:27:54.148Z,48.37
2019-04-05T10:30:22.127Z,49.73
2019-04-05T10:32:50.171Z,48.03
2019-04-05T10:35:19.169Z,49.40
2019-04-05T10:37:47.182Z,49.33
2019-04-05T10:40:15.154Z,50.00
2019-04-05T10:42:43.142Z,47.70
2019-04-05T10:45:11.166Z,48.70
2019-04-05T10:47:39.178Z,46.40
2019-04-05T10:50:08.119Z,42.83
2019-04-05T10:52:36.279Z,41.97
2019-04-05T10:55:04.386Z,43.07
2019-04-05T10:57:32.513Z,42.27
2019-04-05T11:00:00.548Z,39.33
2019-04-05T11:02:28.618Z,40.83
2019-04-05T11:04:56.761Z,41.03
2019-04-05T11:07:24.775Z,40.47
2019-04-05T11:09:53.565Z,42.57
2019-04-05T11:12:21.620Z,39.63
2019-04-05T11:14:49.725Z,39.10
2019-04-05T11:17:18.631Z,39.27
2019-04-05T11:19:46.759Z,38.23
2019-04-05T11:22:14.760Z,34.03
2019-04-05T11:24:42.825Z,35.97
2019-04-05T11:27:10.844Z,35.53
2019-04-05T11:29:38.829Z,34.27
2019-04-05T11:32:06.841Z,35.67
2019-04-05T11:34:35.023Z,33.13
2019-04-05T11:37:03.101Z,33.70
2019-04-05T11:39:31.475Z,31.87
2019-04-05T11:41:59.478Z,34.83
2019-04-05T11:44:27.522Z,35.10
2019-04-05T11:46:55.562Z,34.93
2019-04-05T11:49:23.654Z,33.17
2019-04-05T11:51:51.689Z,34.17
2019-04-05T11:54:19.659Z,32.17
2019-04-05T11:56:47.729Z,35.73
2019-04-05T11:59:16.318Z,36.23
2019-04-05T12:02:03.446Z,36.77
2019-04-05T12:04:31.439Z,37.63
2019-04-05T12:06:59.488Z,37.10
2019-04-05T12:09:27.486Z,34.50
2019-04-05T12:11:55.499Z,37.70
2019-04-05T12:14:30.223Z,38.07
2019-04-05T12:16:53.144Z,37.23
2019-04-05T12:19:21.170Z,35.30
2019-04-05T12:21:49.174Z,36.30
2019-04-05T12:24:17.241Z,36.53
2019-04-05T12:26:45.234Z,37.00
2019-04-05T12:29:13.310Z,34.60
2019-04-05T12:31:41.361Z,35.23
2019-04-05T12:34:09.382Z,35.70
2019-04-05T12:36:37.522Z,34.93
2019-04-05T12:39:08.204Z,37.57
2019-04-05T12:41:38.507Z,35.83
2019-04-05T12:44:06.169Z,36.17
2019-04-05T12:46:34.131Z,36.50
2019-04-05T12:49:02.344Z,32.83
2019-04-05T12:51:30.404Z,36.33
2019-04-05T12:53:58.602Z,33.50
2019-04-05T12:56:27.442Z,35.00
2019-04-05T12:58:55.918Z,36.53
2019-04-05T13:01:24.687Z,35.07
2019-04-05T13:03:52.673Z,34.70
2019-04-05T13:06:21.764Z,35.73
2019-04-05T13:08:51.499Z,34.13
2019-04-05T13:11:20.012Z,34.80
2019-04-05T13:13:48.007Z,35.00
2019-04-05T13:16:16.011Z,34.17
2019-04-05T13:18:44.072Z,36.37
2019-04-05T13:21:15.203Z,34.57
2019-04-05T13:23:42.270Z,34.67
2019-04-05T13:26:12.353Z,34.30
2019-04-05T13:28:40.003Z,35.97
2019-04-05T13:31:08.263Z,34.77
2019-04-05T13:33:36.823Z,35.67
2019-04-05T13:36:04.980Z,34.90
2019-04-05T13:38:33.316Z,34.90
2019-04-05T13:41:02.059Z,36.57
2019-04-05T13:43:31.873Z,37.77
2019-04-05T13:45:59.953Z,34.00
2019-04-05T13:48:28.088Z,36.03
2019-04-05T13:50:56.057Z,35.70
2019-04-05T13:53:24.392Z,35.70
2019-04-05T13:55:52.580Z,37.23
2019-04-05T13:58:20.668Z,35.53
2019-04-05T14:00:49.797Z,35.50
2019-04-05T14:03:18.606Z,34.53
2019-04-05T14:05:49.962Z,33.77
2019-04-05T14:08:17.835Z,36.03
2019-04-05T14:10:45.865Z,35.40
2019-04-05T14:13:14.188Z,34.80
2019-04-05T14:15:43.010Z,34.60
2019-04-05T14:18:14.339Z,35.10
2019-04-05T14:20:41.157Z,35.60
2019-04-05T14:23:09.176Z,35.30
2019-04-05T14:25:37.149Z,34.03
2019-04-05T14:28:05.350Z,34.87
2019-04-05T14:30:34.404Z,34.60
2019-04-05T14:33:02.580Z,35.07
2019-04-05T14:35:30.632Z,34.57
2019-04-05T14:37:58.675Z,35.67
2019-04-05T14:40:29.016Z,33.37
2019-04-05T14:42:56.464Z,35.90
2019-04-05T14:45:24.518Z,32.57
2019-04-05T14:47:52.535Z,36.47
2019-04-05T14:50:20.580Z,34.43
2019-04-05T14:52:49.754Z,33.80
2019-04-05T14:55:17.933Z,33.97
2019-04-05T14:57:47.411Z,33.00
2019-04-05T15:00:16.058Z,33.77
2019-04-05T15:02:44.118Z,33.10
2019-04-05T15:05:12.129Z,35.73
2019-04-05T15:07:40.146Z,32.87
2019-04-05T15:10:08.554Z,33.63
2019-04-05T15:12:36.803Z,33.53
2019-04-05T15:15:05.301Z,33.63
2019-04-05T15:17:33.422Z,33.63
2019-04-05T15:20:04.640Z,32.97
2019-04-05T15:22:31.162Z,35.07
2019-04-05T15:25:01.004Z,34.17
2019-04-05T15:27:29.306Z,33.17
2019-04-05T15:29:57.582Z,33.80
2019-04-05T15:32:26.870Z,36.53
2019-04-05T15:34:56.612Z,31.60
2019-04-05T15:37:31.636Z,39.73
2019-04-05T15:39:58.631Z,33.33
2019-04-05T15:42:27.870Z,33.47
2019-04-05T15:44:56.067Z,33.83
2019-04-05T15:47:24.452Z,32.70
2019-04-05T15:49:52.914Z,34.03
2019-04-05T15:52:21.243Z,36.63
2019-04-05T15:54:49.272Z,34.60
2019-04-05T15:57:17.312Z,33.73
2019-04-05T15:59:46.739Z,33.53
2019-04-05T16:02:14.784Z,34.37
2019-04-05T16:04:42.762Z,33.40
2019-04-05T16:07:10.789Z,33.57
2019-04-05T16:09:38.785Z,35.53
2019-04-05T16:12:06.963Z,34.97
2019-04-05T16:14:35.870Z,36.33
2019-04-05T16:17:04.340Z,33.53
2019-04-05T16:19:32.379Z,33.93
2019-04-05T16:22:00.397Z,33.43
2019-04-05T16:24:28.453Z,34.70
2019-04-05T16:26:56.548Z,34.70
2019-04-05T16:29:24.492Z,35.07
2019-04-05T16:31:52.554Z,35.67
2019-04-05T16:34:20.585Z,33.07
2019-04-05T16:36:50.086Z,35.33
2019-04-05T16:39:20.790Z,36.27
2019-04-05T16:41:48.935Z,36.47
2019-04-05T16:44:16.915Z,34.27
2019-04-05T16:46:44.928Z,38.20
2019-04-05T16:49:12.914Z,37.60
2019-04-05T16:51:40.943Z,37.67
2019-04-05T16:54:09.015Z,37.33
2019-04-05T16:56:36.973Z,37.57
2019-04-05T16:59:04.977Z,36.10
2019-04-05T17:01:32.953Z,37.87
2019-04-05T17:04:00.994Z,37.20
2019-04-05T17:06:28.964Z,44.43
2019-04-05T17:09:02.584Z,39.60
2019-04-05T17:11:30.586Z,38.17
2019-04-05T17:13:59.513Z,37.57
2019-04-05T17:16:27.691Z,39.27
2019-04-05T17:18:56.818Z,38.23
2019-04-05T17:21:24.813Z,38.40
2019-04-05T17:23:52.792Z,38.93
2019-04-05T17:26:20.843Z,39.80
2019-04-05T17:28:48.839Z,38.77
2019-04-05T17:31:16.808Z,40.57
2019-04-05T17:33:44.821Z,39.37
2019-04-05T17:36:12.863Z,37.90
2019-04-05T17:38:40.835Z,41.90
2019-04-05T17:41:08.878Z,43.10
2019-04-05T17:43:36.912Z,42.47
2019-04-05T17:46:04.929Z,40.80
2019-04-05T17:48:32.897Z,42.93
2019-04-05T17:51:00.922Z,43.77
2019-04-05T17:53:28.994Z,43.53
2019-04-05T17:55:59.037Z,42.40
2019-04-05T17:58:26.849Z,41.33
2019-04-05T18:00:55.102Z,45.90
2019-04-05T18:03:23.454Z,43.23
2019-04-05T18:05:51.563Z,42.97
2019-04-05T18:08:22.428Z,45.53
2019-04-05T18:10:50.897Z,43.97
2019-04-05T18:13:19.064Z,44.17
2019-04-05T18:15:52.704Z,43.97
2019-04-05T18:18:16.880Z,44.13
2019-04-05T18:20:44.961Z,43.60
2019-04-05T18:23:24.144Z,44.10
2019-04-05T18:25:42.728Z,46.40
2019-04-05T18:28:10.953Z,43.90
2019-04-05T18:30:39.155Z,45.40
2019-04-05T18:33:07.161Z,46.67
2019-04-05T18:35:35.150Z,44.07
2019-04-05T18:38:03.157Z,45.63
2019-04-05T18:40:40.075Z,44.87
2019-04-05T18:43:00.914Z,44.73
2019-04-05T18:45:28.906Z,46.13
2019-04-05T18:47:56.895Z,47.70
2019-04-05T18:50:24.949Z,44.17
2019-04-05T18:52:52.907Z,45.77
2019-04-05T18:55:20.923Z,44.07
2019-04-05T18:57:48.946Z,46.70
2019-04-05T19:00:16.985Z,42.23
2019-04-05T19:02:45.091Z,42.43
2019-04-05T19:05:13.084Z,46.00
2019-04-05T19:07:41.197Z,44.03
2019-04-05T19:10:09.215Z,45.83
2019-04-05T19:12:37.347Z,45.57
2019-04-05T19:15:05.571Z,44.33
2019-04-05T19:17:33.578Z,44.80
2019-04-05T19:20:01.546Z,46.40
2019-04-05T19:22:29.526Z,45.20
2019-04-05T19:24:57.544Z,47.17
2019-04-05T19:27:26.016Z,44.87
2019-04-05T19:29:55.270Z,44.27
2019-04-05T19:49:53.163Z,45.13
2019-04-05T19:52:21.528Z,45.03
2019-04-05T19:54:49.631Z,44.33
2019-04-05T19:57:18.517Z,46.33
2019-04-05T19:59:46.600Z,46.53
2019-04-05T20:02:14.722Z,45.97
2019-04-05T20:04:43.551Z,48.73
2019-04-05T20:07:11.604Z,51.77
2019-04-05T20:09:39.663Z,51.80
2019-04-05T20:12:07.664Z,46.90
2019-04-05T20:14:35.821Z,45.70
2019-04-05T20:17:04.573Z,44.23
2019-04-05T20:19:32.665Z,44.80
2019-04-05T20:22:00.601Z,47.27
2019-04-05T20:24:28.562Z,46.23
2019-04-05T20:26:56.608Z,45.43
2019-04-05T20:29:24.832Z,47.57
2019-04-05T20:31:52.865Z,47.23
2019-04-05T20:34:20.884Z,47.40
2019-04-05T20:36:49.068Z,48.67
2019-04-05T20:39:17.071Z,47.37
2019-04-05T20:41:45.249Z,45.27
2019-04-05T20:44:13.973Z,47.10
2019-04-05T20:46:42.003Z,47.57
2019-04-05T20:49:11.931Z,48.07
2019-04-05T20:51:39.782Z,46.53
2019-04-05T20:54:07.783Z,48.27
2019-04-05T20:56:35.826Z,44.47
2019-04-05T20:59:03.916Z,48.50
2019-04-05T21:01:32.321Z,44.20
2019-04-05T21:04:00.380Z,46.73
2019-04-05T21:06:28.436Z,48.87
2019-04-05T21:08:56.476Z,49.67
2019-04-05T21:11:26.045Z,49.97
2019-04-05T21:13:54.210Z,49.60
2019-04-05T21:16:22.319Z,47.50
2019-04-05T21:18:50.401Z,52.03
2019-04-05T21:21:18.407Z,48.37
2019-04-05T21:23:46.528Z,47.87
2019-04-05T21:26:14.555Z,49.57
2019-04-05T21:28:43.057Z,48.10
2019-04-05T21:31:11.201Z,50.43
2019-04-05T21:33:39.246Z,50.53
2019-04-05T21:36:07.342Z,50.63
2019-04-05T21:38:35.345Z,52.37
2019-04-05T21:41:03.391Z,48.23
2019-04-05T21:43:31.454Z,50.43
2019-04-05T21:45:59.519Z,52.50
2019-04-05T21:48:27.520Z,48.73
2019-04-05T21:50:56.599Z,51.93
2019-04-05T21:53:24.600Z,51.73
2019-04-05T21:55:53.078Z,52.60
2019-04-05T21:58:21.158Z,51.33
2019-04-05T22:00:52.782Z,52.67
2019-04-05T22:03:20.916Z,51.00
2019-04-05T22:05:49.021Z,50.63
2019-04-05T22:08:16.997Z,52.03
2019-04-05T22:10:45.088Z,53.60
2019-04-05T22:13:13.662Z,51.17
2019-04-05T22:15:41.959Z,52.50
2019-04-05T22:18:10.078Z,54.53
2019-04-05T22:20:38.138Z,53.97
2019-04-05T22:23:06.166Z,53.87
2019-04-05T22:25:34.681Z,55.40
2019-04-05T22:28:03.670Z,55.40
2019-04-05T22:30:31.718Z,54.50
2019-04-05T22:33:00.847Z,52.47
2019-04-05T22:35:28.901Z,53.30
2019-04-05T22:37:56.958Z,53.00
2019-04-05T22:40:25.163Z,53.47
2019-04-05T22:42:53.218Z,50.57
2019-04-05T22:45:21.250Z,54.43
2019-04-05T22:47:49.352Z,53.30
2019-04-05T22:50:17.420Z,53.37
2019-04-05T22:52:45.454Z,53.27
2019-04-05T22:55:13.494Z,55.23
2019-04-05T22:57:41.532Z,55.27
2019-04-05T23:00:09.709Z,55.27
2019-04-05T23:02:37.714Z,53.27
2019-04-05T23:05:05.830Z,54.90
2019-04-05T23:07:33.871Z,54.23
2019-04-05T23:10:01.867Z,55.33
2019-04-05T23:12:29.866Z,52.17
2019-04-05T23:14:57.964Z,54.50
2019-04-05T23:17:26.013Z,53.40
2019-04-05T23:19:54.080Z,55.20
2019-04-05T23:22:22.119Z,52.60
2019-04-05T23:24:50.162Z,52.53
2019-04-05T23:27:19.107Z,56.07
2019-04-05T23:29:47.111Z,55.27
2019-04-05T23:32:15.224Z,54.97
2019-04-05T23:34:43.254Z,54.27
2019-04-05T23:37:11.311Z,54.77
2019-04-05T23:39:39.354Z,53.43
2019-04-05T23:42:07.382Z,54.60
2019-04-05T23:44:35.695Z,54.90
2019-04-05T23:47:03.747Z,53.17
2019-04-05T23:49:31.836Z,53.90
2019-04-05T23:51:59.833Z,53.97
2019-04-05T23:54:27.856Z,52.57
2019-04-05T23:56:55.900Z,55.97
2019-04-05T23:59:23.914Z,56.23
